sensor_id;sensor_type;location;lat;lon;timestamp;pressure;altitude;pressure_sealevel;temperature;humidity
17054;BME280;8643;48.824;11.422;2022-07-10T00:00:54;97506.06;;;16.26;100.00
17054;BME280;8643;48.824;11.422;2022-07-10T00:03:24;97502.78;;;16.20;100.00
17054;BME280;8643;48.824;11.422;2022-07-10T00:05:53;97503.41;;;16.13;100.00
17054;BME280;8643;48.824;11.422;2022-07-10T00:08:21;97503.84;;;16.16;100.00
17054;BME280;8643;48.824;11.422;2022-07-10T00:10:50;97509.00;;;16.17;100.00
17054;BME280;8643;48.824;11.422;2022-07-10T00:13:19;97497.88;;;16.13;100.00
17054;BME280;8643;48.824;11.422;2022-07-10T00:15:47;97504.91;;;16.11;100.00
17054;BME280;8643;48.824;11.422;2022-07-10T00:18:16;97505.50;;;16.04;100.00
17054;BME280;8643;48.824;11.422;2022-07-10T00:20:45;97503.28;;;15.94;100.00
17054;BME280;8643;48.824;11.422;2022-07-10T00:23:14;97500.47;;;15.78;100.00
17054;BME280;8643;48.824;11.422;2022-07-10T00:25:42;97504.97;;;15.70;100.00
17054;BME280;8643;48.824;11.422;2022-07-10T00:28:11;97510.13;;;15.72;100.00
17054;BME280;8643;48.824;11.422;2022-07-10T00:30:39;97501.66;;;15.65;100.00
17054;BME280;8643;48.824;11.422;2022-07-10T00:33:09;97512.94;;;15.60;100.00
17054;BME280;8643;48.824;11.422;2022-07-10T00:35:37;97501.91;;;15.60;100.00
17054;BME280;8643;48.824;11.422;2022-07-10T00:38:07;97512.38;;;15.54;100.00
17054;BME280;8643;48.824;11.422;2022-07-10T00:40:36;97507.00;;;15.45;100.00
17054;BME280;8643;48.824;11.422;2022-07-10T00:43:07;97500.56;;;15.41;100.00
17054;BME280;8643;48.824;11.422;2022-07-10T00:45:36;97497.16;;;15.32;100.00
17054;BME280;8643;48.824;11.422;2022-07-10T00:48:05;97491.53;;;15.28;100.00
17054;BME280;8643;48.824;11.422;2022-07-10T00:50:33;97489.63;;;15.16;100.00
17054;BME280;8643;48.824;11.422;2022-07-10T00:53:02;97493.09;;;14.76;100.00
17054;BME280;8643;48.824;11.422;2022-07-10T00:55:34;97489.41;;;14.35;100.00
17054;BME280;8643;48.824;11.422;2022-07-10T00:58:06;97488.94;;;14.08;100.00
17054;BME280;8643;48.824;11.422;2022-07-10T01:00:36;97492.06;;;13.86;100.00
17054;BME280;8643;48.824;11.422;2022-07-10T01:03:05;97488.03;;;13.71;100.00
17054;BME280;8643;48.824;11.422;2022-07-10T01:05:33;97492.06;;;13.52;100.00
17054;BME280;8643;48.824;11.422;2022-07-10T01:08:02;97485.03;;;13.43;100.00
17054;BME280;8643;48.824;11.422;2022-07-10T01:10:32;97490.94;;;13.32;100.00
17054;BME280;8643;48.824;11.422;2022-07-10T01:13:02;97483.09;;;13.22;100.00
17054;BME280;8643;48.824;11.422;2022-07-10T01:15:31;97488.50;;;13.10;100.00
17054;BME280;8643;48.824;11.422;2022-07-10T01:18:00;97486.50;;;12.98;100.00
17054;BME280;8643;48.824;11.422;2022-07-10T01:20:31;97483.19;;;12.83;100.00
17054;BME280;8643;48.824;11.422;2022-07-10T01:23:01;97474.06;;;12.71;100.00
17054;BME280;8643;48.824;11.422;2022-07-10T01:25:29;97475.09;;;12.57;100.00
17054;BME280;8643;48.824;11.422;2022-07-10T01:27:58;97469.00;;;12.52;100.00
17054;BME280;8643;48.824;11.422;2022-07-10T01:30:27;97470.78;;;12.47;100.00
17054;BME280;8643;48.824;11.422;2022-07-10T01:32:55;97467.25;;;12.47;100.00
17054;BME280;8643;48.824;11.422;2022-07-10T01:35:24;97465.03;;;12.40;100.00
17054;BME280;8643;48.824;11.422;2022-07-10T01:37:52;97465.63;;;12.46;100.00
17054;BME280;8643;48.824;11.422;2022-07-10T01:40:22;97468.38;;;12.46;100.00
17054;BME280;8643;48.824;11.422;2022-07-10T01:42:50;97472.69;;;12.56;100.00
17054;BME280;8643;48.824;11.422;2022-07-10T01:45:19;97466.56;;;12.80;100.00
17054;BME280;8643;48.824;11.422;2022-07-10T01:47:47;97470.34;;;13.17;100.00
17054;BME280;8643;48.824;11.422;2022-07-10T01:50:16;97465.78;;;13.43;100.00
17054;BME280;8643;48.824;11.422;2022-07-10T01:52:45;97465.53;;;13.69;100.00
17054;BME280;8643;48.824;11.422;2022-07-10T01:55:14;97475.50;;;13.73;100.00
17054;BME280;8643;48.824;11.422;2022-07-10T01:57:44;97475.28;;;13.66;100.00
17054;BME280;8643;48.824;11.422;2022-07-10T02:00:13;97473.56;;;13.41;100.00
17054;BME280;8643;48.824;11.422;2022-07-10T02:02:42;97468.66;;;13.25;100.00
17054;BME280;8643;48.824;11.422;2022-07-10T02:05:45;97477.03;;;13.08;100.00
17054;BME280;8643;48.824;11.422;2022-07-10T02:08:12;97473.97;;;13.09;100.00
17054;BME280;8643;48.824;11.422;2022-07-10T02:10:41;97472.22;;;13.26;100.00
17054;BME280;8643;48.824;11.422;2022-07-10T02:13:11;97467.66;;;13.30;100.00
17054;BME280;8643;48.824;11.422;2022-07-10T02:15:41;97472.53;;;13.24;100.00
17054;BME280;8643;48.824;11.422;2022-07-10T02:18:10;97471.13;;;13.18;100.00
17054;BME280;8643;48.824;11.422;2022-07-10T02:20:39;97469.88;;;12.94;100.00
17054;BME280;8643;48.824;11.422;2022-07-10T02:23:07;97469.06;;;12.73;100.00
17054;BME280;8643;48.824;11.422;2022-07-10T02:25:36;97468.53;;;12.79;100.00
17054;BME280;8643;48.824;11.422;2022-07-10T02:28:04;97467.63;;;12.67;100.00
17054;BME280;8643;48.824;11.422;2022-07-10T02:30:34;97466.47;;;12.68;100.00
17054;BME280;8643;48.824;11.422;2022-07-10T02:33:03;97462.00;;;12.63;100.00
17054;BME280;8643;48.824;11.422;2022-07-10T02:35:32;97453.94;;;12.79;100.00
17054;BME280;8643;48.824;11.422;2022-07-10T02:38:00;97462.00;;;12.84;100.00
17054;BME280;8643;48.824;11.422;2022-07-10T02:40:29;97455.38;;;12.85;100.00
17054;BME280;8643;48.824;11.422;2022-07-10T02:42:57;97459.22;;;12.93;100.00
17054;BME280;8643;48.824;11.422;2022-07-10T02:45:26;97457.78;;;13.08;100.00
17054;BME280;8643;48.824;11.422;2022-07-10T02:47:56;97460.47;;;13.16;100.00
17054;BME280;8643;48.824;11.422;2022-07-10T02:50:24;97457.19;;;13.23;100.00
17054;BME280;8643;48.824;11.422;2022-07-10T02:52:53;97460.00;;;13.14;100.00
17054;BME280;8643;48.824;11.422;2022-07-10T02:55:21;97449.63;;;13.20;100.00
17054;BME280;8643;48.824;11.422;2022-07-10T02:57:50;97458.78;;;13.24;100.00
17054;BME280;8643;48.824;11.422;2022-07-10T03:00:18;97453.16;;;13.20;100.00
17054;BME280;8643;48.824;11.422;2022-07-10T03:02:47;97452.22;;;13.16;100.00
17054;BME280;8643;48.824;11.422;2022-07-10T03:05:17;97456.59;;;13.17;100.00
17054;BME280;8643;48.824;11.422;2022-07-10T03:07:45;97458.38;;;13.13;100.00
17054;BME280;8643;48.824;11.422;2022-07-10T03:10:14;97459.09;;;13.10;100.00
17054;BME280;8643;48.824;11.422;2022-07-10T03:12:42;97458.59;;;13.08;100.00
17054;BME280;8643;48.824;11.422;2022-07-10T03:15:11;97452.09;;;13.13;100.00
17054;BME280;8643;48.824;11.422;2022-07-10T03:17:40;97448.22;;;13.14;100.00
17054;BME280;8643;48.824;11.422;2022-07-10T03:20:09;97441.88;;;13.13;100.00
17054;BME280;8643;48.824;11.422;2022-07-10T03:22:39;97442.97;;;13.21;100.00
17054;BME280;8643;48.824;11.422;2022-07-10T03:25:09;97449.25;;;13.21;100.00
17054;BME280;8643;48.824;11.422;2022-07-10T03:27:37;97461.75;;;13.19;100.00
17054;BME280;8643;48.824;11.422;2022-07-10T03:30:07;97464.59;;;13.10;100.00
17054;BME280;8643;48.824;11.422;2022-07-10T03:32:36;97463.63;;;13.06;100.00
17054;BME280;8643;48.824;11.422;2022-07-10T03:35:05;97458.94;;;13.07;100.00
17054;BME280;8643;48.824;11.422;2022-07-10T03:37:34;97463.88;;;13.13;100.00
17054;BME280;8643;48.824;11.422;2022-07-10T03:40:05;97465.84;;;13.13;100.00
17054;BME280;8643;48.824;11.422;2022-07-10T03:42:33;97464.03;;;13.17;100.00
17054;BME280;8643;48.824;11.422;2022-07-10T03:45:01;97463.38;;;13.20;100.00
17054;BME280;8643;48.824;11.422;2022-07-10T03:47:30;97462.22;;;13.21;100.00
17054;BME280;8643;48.824;11.422;2022-07-10T03:49:59;97459.75;;;13.28;100.00
17054;BME280;8643;48.824;11.422;2022-07-10T03:52:27;97463.84;;;13.22;100.00
17054;BME280;8643;48.824;11.422;2022-07-10T03:54:56;97456.16;;;13.28;100.00
17054;BME280;8643;48.824;11.422;2022-07-10T03:57:25;97455.47;;;13.18;100.00
17054;BME280;8643;48.824;11.422;2022-07-10T04:00:12;97454.25;;;13.07;100.00
17054;BME280;8643;48.824;11.422;2022-07-10T04:02:41;97458.53;;;13.17;100.00
17054;BME280;8643;48.824;11.422;2022-07-10T04:05:10;97460.41;;;13.25;100.00
17054;BME280;8643;48.824;11.422;2022-07-10T04:07:38;97463.63;;;13.27;100.00
17054;BME280;8643;48.824;11.422;2022-07-10T04:10:07;97464.25;;;13.33;100.00
17054;BME280;8643;48.824;11.422;2022-07-10T04:12:38;97456.81;;;13.33;100.00
17054;BME280;8643;48.824;11.422;2022-07-10T04:15:07;97460.19;;;13.30;100.00
17054;BME280;8643;48.824;11.422;2022-07-10T04:17:36;97464.06;;;13.38;100.00
17054;BME280;8643;48.824;11.422;2022-07-10T04:20:06;97464.41;;;13.36;100.00
17054;BME280;8643;48.824;11.422;2022-07-10T04:22:35;97456.28;;;13.52;100.00
17054;BME280;8643;48.824;11.422;2022-07-10T04:25:04;97453.69;;;13.56;100.00
17054;BME280;8643;48.824;11.422;2022-07-10T04:27:33;97453.75;;;13.47;100.00
17054;BME280;8643;48.824;11.422;2022-07-10T04:30:04;97468.91;;;13.53;100.00
17054;BME280;8643;48.824;11.422;2022-07-10T04:32:33;97463.31;;;13.62;100.00
17054;BME280;8643;48.824;11.422;2022-07-10T04:35:02;97464.47;;;13.61;100.00
17054;BME280;8643;48.824;11.422;2022-07-10T04:37:30;97468.97;;;13.66;100.00
17054;BME280;8643;48.824;11.422;2022-07-10T04:39:59;97466.34;;;13.69;100.00
17054;BME280;8643;48.824;11.422;2022-07-10T04:42:27;97466.03;;;13.83;100.00
17054;BME280;8643;48.824;11.422;2022-07-10T04:44:56;97468.22;;;13.90;100.00
17054;BME280;8643;48.824;11.422;2022-07-10T04:47:26;97479.28;;;14.02;100.00
17054;BME280;8643;48.824;11.422;2022-07-10T04:49:54;97471.50;;;14.17;100.00
17054;BME280;8643;48.824;11.422;2022-07-10T04:52:23;97475.16;;;14.21;100.00
17054;BME280;8643;48.824;11.422;2022-07-10T04:54:51;97475.19;;;14.33;100.00
17054;BME280;8643;48.824;11.422;2022-07-10T04:57:20;97477.13;;;14.45;100.00
17054;BME280;8643;48.824;11.422;2022-07-10T04:59:49;97487.94;;;14.38;100.00
17054;BME280;8643;48.824;11.422;2022-07-10T05:02:17;97484.47;;;14.28;100.00
17054;BME280;8643;48.824;11.422;2022-07-10T05:04:47;97477.69;;;14.14;100.00
17054;BME280;8643;48.824;11.422;2022-07-10T05:07:15;97492.59;;;14.00;100.00
17054;BME280;8643;48.824;11.422;2022-07-10T05:09:44;97479.03;;;14.07;100.00
17054;BME280;8643;48.824;11.422;2022-07-10T05:12:12;97486.41;;;14.16;100.00
17054;BME280;8643;48.824;11.422;2022-07-10T05:14:41;97479.16;;;14.11;100.00
17054;BME280;8643;48.824;11.422;2022-07-10T05:17:10;97491.13;;;14.15;100.00
17054;BME280;8643;48.824;11.422;2022-07-10T05:19:38;97491.72;;;14.33;100.00
17054;BME280;8643;48.824;11.422;2022-07-10T05:22:08;97486.53;;;14.32;100.00
17054;BME280;8643;48.824;11.422;2022-07-10T05:24:37;97490.00;;;14.41;100.00
17054;BME280;8643;48.824;11.422;2022-07-10T05:27:06;97490.69;;;14.50;100.00
17054;BME280;8643;48.824;11.422;2022-07-10T05:29:34;97499.19;;;14.33;100.00
17054;BME280;8643;48.824;11.422;2022-07-10T05:32:03;97496.19;;;14.50;100.00
17054;BME280;8643;48.824;11.422;2022-07-10T05:34:32;97491.59;;;14.42;100.00
17054;BME280;8643;48.824;11.422;2022-07-10T05:37:00;97497.00;;;14.51;100.00
17054;BME280;8643;48.824;11.422;2022-07-10T05:39:30;97506.53;;;14.53;100.00
17054;BME280;8643;48.824;11.422;2022-07-10T05:41:59;97498.84;;;14.71;100.00
17054;BME280;8643;48.824;11.422;2022-07-10T05:44:27;97498.13;;;14.99;100.00
17054;BME280;8643;48.824;11.422;2022-07-10T05:46:56;97506.16;;;15.04;100.00
17054;BME280;8643;48.824;11.422;2022-07-10T05:49:25;97496.94;;;15.25;100.00
17054;BME280;8643;48.824;11.422;2022-07-10T05:51:53;97497.72;;;15.37;100.00
17054;BME280;8643;48.824;11.422;2022-07-10T05:54:22;97498.75;;;15.33;100.00
17054;BME280;8643;48.824;11.422;2022-07-10T05:56:52;97502.81;;;15.23;100.00
17054;BME280;8643;48.824;11.422;2022-07-10T05:59:20;97498.63;;;15.01;100.00
17054;BME280;8643;48.824;11.422;2022-07-10T06:01:49;97500.66;;;15.04;100.00
17054;BME280;8643;48.824;11.422;2022-07-10T06:04:18;97501.69;;;15.52;100.00
17054;BME280;8643;48.824;11.422;2022-07-10T06:06:46;97508.66;;;15.62;96.18
17054;BME280;8643;48.824;11.422;2022-07-10T06:09:15;97509.28;;;15.84;98.33
17054;BME280;8643;48.824;11.422;2022-07-10T06:11:44;97518.19;;;16.21;94.00
17054;BME280;8643;48.824;11.422;2022-07-10T06:14:14;97513.28;;;16.30;93.37
17054;BME280;8643;48.824;11.422;2022-07-10T06:16:43;97514.06;;;16.95;91.70
17054;BME280;8643;48.824;11.422;2022-07-10T06:19:11;97515.13;;;17.41;89.23
17054;BME280;8643;48.824;11.422;2022-07-10T06:21:40;97511.50;;;17.37;88.42
17054;BME280;8643;48.824;11.422;2022-07-10T06:24:09;97515.34;;;17.52;87.63
17054;BME280;8643;48.824;11.422;2022-07-10T06:26:37;97516.16;;;17.53;86.71
17054;BME280;8643;48.824;11.422;2022-07-10T06:29:06;97518.19;;;17.36;84.87
17054;BME280;8643;48.824;11.422;2022-07-10T06:31:35;97527.16;;;17.49;84.43
17054;BME280;8643;48.824;11.422;2022-07-10T06:34:04;97529.41;;;17.44;83.18
17054;BME280;8643;48.824;11.422;2022-07-10T06:36:33;97533.88;;;17.87;83.23
17054;BME280;8643;48.824;11.422;2022-07-10T06:39:01;97523.16;;;18.28;80.87
17054;BME280;8643;48.824;11.422;2022-07-10T06:41:29;97530.44;;;17.55;80.16
17054;BME280;8643;48.824;11.422;2022-07-10T06:43:58;97535.22;;;17.38;83.67
17054;BME280;8643;48.824;11.422;2022-07-10T06:46:28;97545.41;;;16.67;83.64
17054;BME280;8643;48.824;11.422;2022-07-10T06:48:58;97548.16;;;16.35;85.61
17054;BME280;8643;48.824;11.422;2022-07-10T06:51:25;97536.31;;;16.35;86.11
17054;BME280;8643;48.824;11.422;2022-07-10T06:53:56;97537.03;;;16.31;85.07
17054;BME280;8643;48.824;11.422;2022-07-10T06:56:24;97542.69;;;16.07;86.28
17054;BME280;8643;48.824;11.422;2022-07-10T06:58:54;97547.16;;;16.75;82.73
17054;BME280;8643;48.824;11.422;2022-07-10T07:01:22;97552.38;;;16.93;81.62
17054;BME280;8643;48.824;11.422;2022-07-10T07:03:51;97551.56;;;16.76;80.36
17054;BME280;8643;48.824;11.422;2022-07-10T07:06:21;97552.41;;;16.17;80.82
17054;BME280;8643;48.824;11.422;2022-07-10T07:08:49;97551.16;;;16.14;82.98
17054;BME280;8643;48.824;11.422;2022-07-10T07:11:18;97551.56;;;16.44;80.96
17054;BME280;8643;48.824;11.422;2022-07-10T07:13:46;97556.13;;;16.53;81.06
17054;BME280;8643;48.824;11.422;2022-07-10T07:16:15;97556.19;;;16.56;81.28
17054;BME280;8643;48.824;11.422;2022-07-10T07:18:47;97554.59;;;16.71;78.33
17054;BME280;8643;48.824;11.422;2022-07-10T07:21:20;97553.53;;;17.63;75.98
17054;BME280;8643;48.824;11.422;2022-07-10T07:24:07;97565.84;;;17.46;73.23
17054;BME280;8643;48.824;11.422;2022-07-10T07:26:35;97559.38;;;17.22;74.17
17054;BME280;8643;48.824;11.422;2022-07-10T07:29:05;97571.00;;;17.12;74.53
17054;BME280;8643;48.824;11.422;2022-07-10T07:31:33;97570.09;;;17.23;73.94
17054;BME280;8643;48.824;11.422;2022-07-10T07:34:02;97566.63;;;16.79;75.02
17054;BME280;8643;48.824;11.422;2022-07-10T07:36:32;97568.50;;;16.59;74.49
17054;BME280;8643;48.824;11.422;2022-07-10T07:39:00;97563.22;;;16.38;74.24
17054;BME280;8643;48.824;11.422;2022-07-10T07:41:29;97562.75;;;16.20;75.94
17054;BME280;8643;48.824;11.422;2022-07-10T07:43:58;97563.81;;;16.31;75.83
17054;BME280;8643;48.824;11.422;2022-07-10T07:46:26;97549.03;;;16.23;76.90
17054;BME280;8643;48.824;11.422;2022-07-10T07:48:55;97561.69;;;16.24;75.15
17054;BME280;8643;48.824;11.422;2022-07-10T07:51:24;97567.84;;;16.34;74.50
17054;BME280;8643;48.824;11.422;2022-07-10T07:53:54;97564.75;;;16.51;74.07
17054;BME280;8643;48.824;11.422;2022-07-10T07:56:22;97564.31;;;16.81;76.16
17054;BME280;8643;48.824;11.422;2022-07-10T07:58:51;97562.78;;;17.15;75.46
17054;BME280;8643;48.824;11.422;2022-07-10T08:01:19;97572.16;;;16.95;71.99
17054;BME280;8643;48.824;11.422;2022-07-10T08:03:48;97573.06;;;16.99;73.74
17054;BME280;8643;48.824;11.422;2022-07-10T08:06:35;97571.56;;;17.01;75.79
17054;BME280;8643;48.824;11.422;2022-07-10T08:09:04;97578.69;;;16.71;72.50
17054;BME280;8643;48.824;11.422;2022-07-10T08:11:33;97574.94;;;16.79;72.88
17054;BME280;8643;48.824;11.422;2022-07-10T08:14:01;97573.28;;;16.90;73.85
17054;BME280;8643;48.824;11.422;2022-07-10T08:16:29;97581.34;;;16.83;71.68
17054;BME280;8643;48.824;11.422;2022-07-10T08:18:58;97578.53;;;16.95;73.87
17054;BME280;8643;48.824;11.422;2022-07-10T08:21:27;97575.72;;;16.79;71.93
17054;BME280;8643;48.824;11.422;2022-07-10T08:23:55;97582.59;;;16.70;69.98
17054;BME280;8643;48.824;11.422;2022-07-10T08:26:25;97583.03;;;16.72;71.92
17054;BME280;8643;48.824;11.422;2022-07-10T08:28:54;97573.88;;;16.83;72.02
17054;BME280;8643;48.824;11.422;2022-07-10T08:31:22;97579.72;;;17.65;71.50
17054;BME280;8643;48.824;11.422;2022-07-10T08:33:51;97570.13;;;17.98;67.87
17054;BME280;8643;48.824;11.422;2022-07-10T08:36:20;97559.88;;;19.14;63.65
17054;BME280;8643;48.824;11.422;2022-07-10T08:39:07;97567.72;;;18.39;63.84
17054;BME280;8643;48.824;11.422;2022-07-10T08:41:37;97565.66;;;18.56;62.50
17054;BME280;8643;48.824;11.422;2022-07-10T08:44:06;97563.09;;;18.24;65.78
17054;BME280;8643;48.824;11.422;2022-07-10T08:46:40;97568.94;;;17.80;65.28
17054;BME280;8643;48.824;11.422;2022-07-10T08:49:10;97578.31;;;17.55;66.30
17054;BME280;8643;48.824;11.422;2022-07-10T08:51:46;97561.97;;;19.21;60.73
17054;BME280;8643;48.824;11.422;2022-07-10T08:54:16;97560.50;;;17.92;60.85
17054;BME280;8643;48.824;11.422;2022-07-10T08:56:50;97550.63;;;17.55;65.79
17054;BME280;8643;48.824;11.422;2022-07-10T08:59:20;97554.25;;;17.59;64.90
17054;BME280;8643;48.824;11.422;2022-07-10T09:01:55;97554.19;;;17.56;65.29
17054;BME280;8643;48.824;11.422;2022-07-10T09:04:26;97549.22;;;17.46;63.71
17054;BME280;8643;48.824;11.422;2022-07-10T09:06:55;97553.59;;;17.47;62.78
17054;BME280;8643;48.824;11.422;2022-07-10T09:09:24;97542.59;;;18.75;61.68
17054;BME280;8643;48.824;11.422;2022-07-10T09:11:57;97542.19;;;18.96;57.52
17054;BME280;8643;48.824;11.422;2022-07-10T09:14:27;97550.31;;;18.62;60.03
17054;BME280;8643;48.824;11.422;2022-07-10T09:17:02;97539.41;;;18.07;59.97
17054;BME280;8643;48.824;11.422;2022-07-10T09:19:31;97546.91;;;18.72;58.73
17054;BME280;8643;48.824;11.422;2022-07-10T09:22:05;97547.13;;;19.10;59.52
17054;BME280;8643;48.824;11.422;2022-07-10T09:24:36;97547.75;;;20.17;54.14
17054;BME280;8643;48.824;11.422;2022-07-10T09:27:07;97548.84;;;20.09;55.15
17054;BME280;8643;48.824;11.422;2022-07-10T09:29:45;97544.41;;;20.01;50.76
17054;BME280;8643;48.824;11.422;2022-07-10T09:32:15;97545.97;;;19.11;52.81
17054;BME280;8643;48.824;11.422;2022-07-10T09:34:46;97546.72;;;19.65;54.59
17054;BME280;8643;48.824;11.422;2022-07-10T09:37:20;97541.56;;;22.05;49.10
17054;BME280;8643;48.824;11.422;2022-07-10T09:39:58;97553.09;;;21.22;47.83
17054;BME280;8643;48.824;11.422;2022-07-10T09:42:33;97547.53;;;21.26;47.87
17054;BME280;8643;48.824;11.422;2022-07-10T09:45:18;97544.00;;;22.10;46.08
17054;BME280;8643;48.824;11.422;2022-07-10T09:47:55;97548.25;;;21.12;48.40
17054;BME280;8643;48.824;11.422;2022-07-10T09:50:27;97544.16;;;19.79;50.94
17054;BME280;8643;48.824;11.422;2022-07-10T09:52:57;97554.97;;;19.04;50.66
17054;BME280;8643;48.824;11.422;2022-07-10T09:55:28;97555.56;;;20.42;47.50
17054;BME280;8643;48.824;11.422;2022-07-10T09:58:00;97554.19;;;21.70;44.40
17054;BME280;8643;48.824;11.422;2022-07-10T10:00:31;97558.88;;;22.64;42.85
17054;BME280;8643;48.824;11.422;2022-07-10T10:03:01;97544.53;;;23.23;42.95
17054;BME280;8643;48.824;11.422;2022-07-10T10:05:40;97544.41;;;23.81;40.75
17054;BME280;8643;48.824;11.422;2022-07-10T10:08:15;97551.47;;;20.32;47.35
17054;BME280;8643;48.824;11.422;2022-07-10T10:10:47;97559.25;;;19.82;48.90
17054;BME280;8643;48.824;11.422;2022-07-10T10:13:19;97555.47;;;19.97;49.71
17054;BME280;8643;48.824;11.422;2022-07-10T10:15:50;97547.13;;;21.97;46.37
17054;BME280;8643;48.824;11.422;2022-07-10T10:18:20;97558.44;;;21.49;45.60
17054;BME280;8643;48.824;11.422;2022-07-10T10:20:50;97553.47;;;19.94;48.39
17054;BME280;8643;48.824;11.422;2022-07-10T10:23:20;97552.88;;;21.49;44.98
17054;BME280;8643;48.824;11.422;2022-07-10T10:25:50;97545.72;;;22.65;42.97
17054;BME280;8643;48.824;11.422;2022-07-10T10:28:22;97539.69;;;23.46;41.45
17054;BME280;8643;48.824;11.422;2022-07-10T10:30:55;97547.72;;;22.68;42.61
17054;BME280;8643;48.824;11.422;2022-07-10T10:33:43;97547.69;;;22.39;43.07
17054;BME280;8643;48.824;11.422;2022-07-10T10:36:48;97548.16;;;21.57;41.74
17054;BME280;8643;48.824;11.422;2022-07-10T10:39:18;97544.00;;;20.77;43.27
17054;BME280;8643;48.824;11.422;2022-07-10T10:41:49;97547.69;;;20.92;46.67
17054;BME280;8643;48.824;11.422;2022-07-10T10:44:29;97538.09;;;21.41;44.98
17054;BME280;8643;48.824;11.422;2022-07-10T10:47:03;97538.31;;;21.77;44.02
17054;BME280;8643;48.824;11.422;2022-07-10T10:49:53;97543.22;;;20.39;45.47
17054;BME280;8643;48.824;11.422;2022-07-10T10:52:23;97536.03;;;20.76;46.79
17054;BME280;8643;48.824;11.422;2022-07-10T10:55:06;97538.25;;;21.67;42.61
17054;BME280;8643;48.824;11.422;2022-07-10T10:57:42;97542.13;;;20.92;46.32
17054;BME280;8643;48.824;11.422;2022-07-10T11:00:33;97543.59;;;20.38;46.16
17054;BME280;8643;48.824;11.422;2022-07-10T11:03:17;97537.59;;;22.09;46.16
17054;BME280;8643;48.824;11.422;2022-07-10T11:05:48;97543.50;;;21.20;43.83
17054;BME280;8643;48.824;11.422;2022-07-10T11:08:38;97541.34;;;21.51;42.15
17054;BME280;8643;48.824;11.422;2022-07-10T11:11:37;97537.31;;;20.44;46.42
17054;BME280;8643;48.824;11.422;2022-07-10T11:14:11;97547.44;;;19.88;47.00
17054;BME280;8643;48.824;11.422;2022-07-10T11:16:47;97545.03;;;19.56;47.77
17054;BME280;8643;48.824;11.422;2022-07-10T11:19:24;97544.72;;;19.65;45.90
17054;BME280;8643;48.824;11.422;2022-07-10T11:22:17;97533.19;;;21.97;43.40
17054;BME280;8643;48.824;11.422;2022-07-10T11:25:01;97537.81;;;21.61;41.26
17054;BME280;8643;48.824;11.422;2022-07-10T11:27:53;97541.41;;;21.02;43.42
17054;BME280;8643;48.824;11.422;2022-07-10T11:30:28;97543.13;;;21.95;45.06
17054;BME280;8643;48.824;11.422;2022-07-10T11:33:04;97548.00;;;20.80;45.20
17054;BME280;8643;48.824;11.422;2022-07-10T11:35:33;97541.53;;;21.20;44.99
17054;BME280;8643;48.824;11.422;2022-07-10T11:38:01;97542.94;;;20.93;45.96
17054;BME280;8643;48.824;11.422;2022-07-10T11:40:30;97541.53;;;21.94;45.65
17054;BME280;8643;48.824;11.422;2022-07-10T11:42:58;97536.16;;;22.84;42.34
17054;BME280;8643;48.824;11.422;2022-07-10T11:45:30;97541.72;;;22.59;42.90
17054;BME280;8643;48.824;11.422;2022-07-10T11:47:59;97539.72;;;23.31;42.60
17054;BME280;8643;48.824;11.422;2022-07-10T11:50:35;97538.44;;;22.24;42.38
17054;BME280;8643;48.824;11.422;2022-07-10T11:53:05;97532.88;;;23.57;39.45
17054;BME280;8643;48.824;11.422;2022-07-10T11:55:33;97534.13;;;22.48;39.01
17054;BME280;8643;48.824;11.422;2022-07-10T11:58:14;97536.91;;;22.52;40.85
17054;BME280;8643;48.824;11.422;2022-07-10T12:00:43;97540.00;;;23.91;40.61
17054;BME280;8643;48.824;11.422;2022-07-10T12:03:19;97536.19;;;23.13;40.50
17054;BME280;8643;48.824;11.422;2022-07-10T12:06:02;97530.09;;;23.57;38.24
17054;BME280;8643;48.824;11.422;2022-07-10T12:08:45;97529.28;;;22.20;39.84
17054;BME280;8643;48.824;11.422;2022-07-10T12:11:15;97535.22;;;21.31;42.69
17054;BME280;8643;48.824;11.422;2022-07-10T12:13:47;97553.88;;;20.71;45.74
17054;BME280;8643;48.824;11.422;2022-07-10T12:16:17;97529.88;;;21.63;41.55
17054;BME280;8643;48.824;11.422;2022-07-10T12:18:48;97538.53;;;23.32;38.51
17054;BME280;8643;48.824;11.422;2022-07-10T12:21:30;97543.31;;;22.60;39.59
17054;BME280;8643;48.824;11.422;2022-07-10T12:24:01;97538.44;;;22.17;41.82
17054;BME280;8643;48.824;11.422;2022-07-10T12:26:43;97531.38;;;22.81;40.81
17054;BME280;8643;48.824;11.422;2022-07-10T12:29:21;97529.00;;;22.86;38.61
17054;BME280;8643;48.824;11.422;2022-07-10T12:31:56;97533.75;;;22.86;40.29
17054;BME280;8643;48.824;11.422;2022-07-10T12:34:36;97532.78;;;23.79;39.26
17054;BME280;8643;48.824;11.422;2022-07-10T12:37:12;97537.13;;;24.02;37.14
17054;BME280;8643;48.824;11.422;2022-07-10T12:39:48;97534.41;;;23.84;39.02
17054;BME280;8643;48.824;11.422;2022-07-10T12:42:26;97542.47;;;23.60;39.54
17054;BME280;8643;48.824;11.422;2022-07-10T12:45:09;97546.09;;;24.45;37.63
17054;BME280;8643;48.824;11.422;2022-07-10T12:47:44;97537.97;;;24.65;37.92
17054;BME280;8643;48.824;11.422;2022-07-10T12:50:16;97541.34;;;24.35;37.35
17054;BME280;8643;48.824;11.422;2022-07-10T12:52:50;97532.94;;;24.39;36.82
17054;BME280;8643;48.824;11.422;2022-07-10T12:55:38;97531.34;;;22.66;39.51
17054;BME280;8643;48.824;11.422;2022-07-10T12:58:11;97547.06;;;21.76;41.44
17054;BME280;8643;48.824;11.422;2022-07-10T13:00:45;97535.50;;;21.11;44.25
17054;BME280;8643;48.824;11.422;2022-07-10T13:03:19;97541.97;;;22.03;40.88
17054;BME280;8643;48.824;11.422;2022-07-10T13:05:53;97543.72;;;23.37;40.32
17054;BME280;8643;48.824;11.422;2022-07-10T13:08:28;97526.31;;;24.04;36.76
17054;BME280;8643;48.824;11.422;2022-07-10T13:11:00;97540.94;;;23.09;38.88
17054;BME280;8643;48.824;11.422;2022-07-10T13:13:31;97544.44;;;21.38;42.60
17054;BME280;8643;48.824;11.422;2022-07-10T13:16:03;97547.38;;;20.60;44.26